Time;durP1;ratioP1;P1;durP2;ratioP2;P2;SDS_P1;SDS_P2;PMS_P1;PMS_P2;Temp;Humidity;BMP_temperature;BMP_pressure;BME280_temperature;BME280_humidity;BME280_pressure;Samples;Min_cycle;Max_cycle;Signal;HPM_P1;HPM_P2
2021/11/28 00:00:32;;;;;;;25.35;18.58;;;5.70;86.40;;;;;;5088211;28;20103;-72
2021/11/28 00:03:01;;;;;;;22.45;16.63;;;5.70;86.40;;;;;;5088680;28;20131;-72
2021/11/28 00:05:27;;;;;;;25.10;16.98;;;5.70;86.50;;;;;;5088727;28;20024;-72
2021/11/28 00:11:04;;;;;;;23.52;17.27;;;5.70;86.50;;;;;;5089793;28;20058;-72
2021/11/28 00:15:59;;;;;;;21.75;16.73;;;5.70;86.50;;;;;;5111094;28;20169;-72
2021/11/28 00:18:26;;;;;;;25.48;17.90;;;5.80;86.70;;;;;;5076946;28;20119;-72
2021/11/28 00:20:52;;;;;;;22.80;14.88;;;5.70;86.60;;;;;;5069761;28;20031;-72
2021/11/28 00:23:18;;;;;;;21.85;13.45;;;5.70;86.70;;;;;;5089809;28;20050;-72
2021/11/28 00:25:45;;;;;;;21.88;12.75;;;5.70;86.70;;;;;;5071514;28;20387;-72
2021/11/28 00:28:13;;;;;;;17.55;12.07;;;5.70;86.70;;;;;;5089517;28;20028;-72
2021/11/28 00:30:40;;;;;;;18.48;11.00;;;5.70;86.60;;;;;;5089765;28;20055;-76
2021/11/28 00:33:05;;;;;;;14.95;11.30;;;5.80;86.60;;;;;;5090138;28;20494;-72
2021/11/28 00:35:31;;;;;;;14.07;10.27;;;5.80;86.50;;;;;;5071783;28;20028;-72
2021/11/28 00:37:57;;;;;;;14.52;10.52;;;5.80;86.40;;;;;;5067798;28;20157;-72
2021/11/28 00:40:22;;;;;;;16.48;9.75;;;5.70;86.30;;;;;;5089538;28;20528;-72
2021/11/28 00:42:48;;;;;;;15.40;9.93;;;5.80;86.40;;;;;;5089859;28;20482;-72
2021/11/28 00:45:14;;;;;;;15.02;9.85;;;5.70;86.20;;;;;;5071764;28;20032;-72
2021/11/28 00:47:40;;;;;;;12.10;8.55;;;5.80;86.20;;;;;;5090752;28;20051;-76
2021/11/28 00:52:36;;;;;;;12.90;8.60;;;5.70;86.00;;;;;;5090139;28;20042;-75
2021/11/28 00:55:04;;;;;;;14.20;8.95;;;5.70;86.00;;;;;;5084768;28;20020;-72
2021/11/28 00:57:29;;;;;;;14.95;9.23;;;5.70;86.00;;;;;;5072240;28;20046;-75
2021/11/28 00:59:56;;;;;;;13.32;8.82;;;5.70;86.00;;;;;;5090306;28;20741;-76
2021/11/28 01:02:23;;;;;;;15.43;9.25;;;5.70;86.00;;;;;;5089734;28;20074;-75
2021/11/28 01:04:48;;;;;;;15.93;8.43;;;5.80;86.00;;;;;;5090299;28;20075;-76
2021/11/28 01:07:14;;;;;;;14.45;8.52;;;5.80;86.00;;;;;;5083266;28;20048;-75
2021/11/28 01:09:40;;;;;;;12.85;8.68;;;5.80;85.90;;;;;;5089884;28;20052;-76
2021/11/28 01:12:07;;;;;;;13.80;9.43;;;5.80;85.90;;;;;;5066209;28;20032;-76
2021/11/28 01:14:33;;;;;;;12.43;8.30;;;5.80;85.80;;;;;;5071843;28;20028;-76
2021/11/28 01:16:59;;;;;;;12.05;8.85;;;5.80;85.80;;;;;;5093635;28;20028;-76
2021/11/28 01:19:25;;;;;;;15.43;9.52;;;5.80;85.80;;;;;;5094099;28;20032;-76
2021/11/28 01:22:03;;;;;;;13.18;9.32;;;5.80;85.80;;;;;;5093900;28;20585;-76
2021/11/28 01:24:30;;;;;;;15.88;9.73;;;5.80;85.70;;;;;;5094237;28;20078;-76
2021/11/28 01:26:57;;;;;;;15.73;9.05;;;5.80;85.70;;;;;;5075420;28;20093;-76
2021/11/28 01:29:23;;;;;;;14.68;9.63;;;5.80;85.70;;;;;;5093479;28;20032;-76
2021/11/28 01:31:49;;;;;;;14.27;8.90;;;5.80;85.80;;;;;;5093675;28;20066;-76
2021/11/28 01:34:15;;;;;;;12.85;9.88;;;5.80;85.70;;;;;;5093888;28;20024;-76
2021/11/28 01:36:40;;;;;;;15.75;9.30;;;5.70;85.70;;;;;;5093974;28;20031;-76
2021/11/28 01:39:08;;;;;;;14.73;10.23;;;5.80;85.80;;;;;;5094077;28;20470;-76
2021/11/28 01:41:34;;;;;;;15.93;9.10;;;5.80;86.30;;;;;;5093606;28;20020;-76
2021/11/28 01:44:00;;;;;;;13.70;8.65;;;5.70;85.70;;;;;;5093460;28;20028;-76
2021/11/28 01:46:27;;;;;;;12.02;8.60;;;5.80;85.80;;;;;;5088771;28;20530;-75
2021/11/28 01:48:55;;;;;;;12.20;9.27;;;5.80;85.80;;;;;;5077401;28;20103;-76
2021/11/28 01:51:21;;;;;;;16.77;10.23;;;5.80;85.80;;;;;;5055608;28;20029;-76
2021/11/28 01:53:49;;;;;;;16.00;10.45;;;5.70;85.70;;;;;;5071917;28;20482;-76
2021/11/28 01:56:16;;;;;;;16.83;11.63;;;5.80;85.90;;;;;;5071631;28;20021;-76
2021/11/28 01:58:42;;;;;;;19.60;13.45;;;5.80;86.00;;;;;;5073197;28;20020;-76
2021/11/28 02:01:13;;;;;;;17.58;13.35;;;5.70;85.90;;;;;;5090248;28;20386;-76
2021/11/28 02:03:41;;;;;;;20.05;14.40;;;5.70;86.00;;;;;;5090077;28;20505;-76
2021/11/28 02:06:09;;;;;;;20.77;14.75;;;5.70;86.00;;;;;;5093158;28;20028;-76
2021/11/28 02:08:35;;;;;;;23.35;14.43;;;5.80;86.00;;;;;;5088958;28;20028;-76
2021/11/28 02:11:01;;;;;;;23.20;14.88;;;5.80;86.00;;;;;;5073527;28;20051;-76
2021/11/28 02:13:27;;;;;;;21.52;15.65;;;5.70;86.00;;;;;;5075429;28;20077;-76
2021/11/28 02:15:53;;;;;;;22.75;16.50;;;5.80;86.00;;;;;;5092688;28;20020;-76
2021/11/28 02:18:20;;;;;;;21.50;16.27;;;5.70;85.90;;;;;;5092451;28;21815;-76
2021/11/28 02:20:48;;;;;;;21.08;15.48;;;5.70;86.00;;;;;;5108496;28;20020;-76
2021/11/28 02:23:14;;;;;;;21.70;16.00;;;5.70;86.00;;;;;;5055581;28;20028;-72
2021/11/28 02:25:42;;;;;;;25.10;16.48;;;5.70;86.00;;;;;;5090995;28;20498;-72
2021/11/28 02:28:08;;;;;;;18.95;15.57;;;5.70;85.90;;;;;;5090791;28;20027;-76
2021/11/28 02:30:34;;;;;;;20.95;15.95;;;5.70;85.90;;;;;;5091593;28;20479;-76
2021/11/28 02:33:00;;;;;;;23.58;16.52;;;5.70;85.90;;;;;;5090844;28;20082;-76
2021/11/28 02:35:30;;;;;;;21.15;16.10;;;5.70;86.00;;;;;;5089837;28;20028;-76
2021/11/28 02:37:56;;;;;;;21.00;15.35;;;5.70;85.90;;;;;;5091164;28;20023;-76
2021/11/28 02:40:26;;;;;;;23.48;15.57;;;5.70;86.00;;;;;;5090723;28;20468;-76
2021/11/28 02:42:52;;;;;;;23.35;15.65;;;5.70;86.00;;;;;;5090855;28;20024;-76
2021/11/28 02:45:21;;;;;;;19.33;14.07;;;5.70;86.00;;;;;;5085885;28;20050;-76
2021/11/28 02:47:48;;;;;;;20.00;15.38;;;5.70;86.00;;;;;;5092384;28;20035;-75
2021/11/28 02:50:15;;;;;;;24.60;15.57;;;5.70;86.00;;;;;;5088000;28;20455;-76
2021/11/28 02:52:44;;;;;;;22.35;14.85;;;5.70;86.00;;;;;;5066804;28;20033;-76
2021/11/28 02:55:10;;;;;;;21.08;15.40;;;5.70;86.00;;;;;;5090934;28;20494;-76
2021/11/28 02:57:36;;;;;;;21.88;15.20;;;5.70;86.00;;;;;;5073560;28;20024;-76
2021/11/28 03:00:04;;;;;;;19.67;14.80;;;5.70;85.90;;;;;;5073497;28;20059;-76
2021/11/28 03:02:29;;;;;;;23.88;15.85;;;5.70;86.00;;;;;;5071796;28;20036;-72
2021/11/28 03:04:55;;;;;;;21.20;14.65;;;5.70;86.00;;;;;;5090816;28;20078;-72
2021/11/28 03:07:21;;;;;;;24.40;15.57;;;5.80;86.10;;;;;;5090936;28;20506;-76
2021/11/28 03:09:47;;;;;;;24.85;15.20;;;5.70;86.00;;;;;;5090519;28;20499;-76
2021/11/28 03:12:13;;;;;;;19.17;14.77;;;5.70;86.00;;;;;;5091515;28;20023;-76
2021/11/28 03:14:39;;;;;;;19.92;14.95;;;5.70;86.00;;;;;;5072790;28;20044;-72
2021/11/28 03:17:06;;;;;;;22.75;14.88;;;5.70;85.90;;;;;;5092030;28;20028;-72
2021/11/28 03:19:31;;;;;;;20.98;15.68;;;5.70;86.00;;;;;;5090713;28;20036;-72
2021/11/28 03:21:57;;;;;;;20.23;15.18;;;5.70;85.90;;;;;;5090131;28;20406;-72
2021/11/28 03:24:23;;;;;;;20.65;14.93;;;5.70;86.00;;;;;;5072770;28;20523;-72
2021/11/28 03:26:51;;;;;;;27.85;16.42;;;5.70;86.00;;;;;;5090013;28;20028;-72
2021/11/28 03:29:20;;;;;;;20.92;15.55;;;5.70;85.90;;;;;;5070997;28;20024;-72
2021/11/28 03:31:48;;;;;;;20.08;15.93;;;5.70;85.90;;;;;;5067920;28;20029;-72
2021/11/28 03:34:16;;;;;;;23.63;16.85;;;5.70;85.90;;;;;;5071803;28;20020;-72
2021/11/28 03:36:48;;;;;;;23.38;16.17;;;5.70;85.90;;;;;;5090151;28;20073;-72
2021/11/28 03:39:17;;;;;;;21.13;16.02;;;5.70;86.10;;;;;;5082010;28;20414;-72
2021/11/28 03:41:44;;;;;;;24.27;17.92;;;5.70;85.80;;;;;;5088134;28;20020;-72
2021/11/28 03:44:10;;;;;;;24.63;16.95;;;5.70;85.80;;;;;;5088922;28;20109;-72
2021/11/28 03:46:36;;;;;;;23.65;18.33;;;5.70;85.70;;;;;;5087158;28;20040;-72
2021/11/28 03:49:03;;;;;;;27.25;17.75;;;5.70;85.60;;;;;;5072388;28;20043;-74
2021/11/28 03:51:29;;;;;;;27.23;18.10;;;5.60;85.60;;;;;;5081447;28;20436;-76
2021/11/28 03:53:55;;;;;;;22.77;17.35;;;5.60;85.60;;;;;;5089895;28;20123;-76
2021/11/28 03:56:22;;;;;;;28.55;18.38;;;5.60;85.60;;;;;;5072482;28;20020;-72
2021/11/28 03:58:48;;;;;;;26.38;17.75;;;5.60;85.60;;;;;;5072848;28;20124;-72
2021/11/28 04:01:17;;;;;;;22.63;16.83;;;5.60;85.60;;;;;;5089768;28;20022;-76
2021/11/28 04:03:43;;;;;;;25.85;17.83;;;5.70;85.70;;;;;;5090559;28;20031;-76
2021/11/28 04:06:09;;;;;;;24.73;17.88;;;5.70;85.60;;;;;;5090023;28;20031;-72
2021/11/28 04:08:35;;;;;;;26.23;17.65;;;5.60;85.50;;;;;;5078500;28;20488;-72
2021/11/28 04:11:01;;;;;;;26.85;18.02;;;5.70;85.60;;;;;;5066870;28;20444;-72
2021/11/28 04:13:27;;;;;;;24.98;17.55;;;5.60;85.40;;;;;;5071178;28;20399;-72
2021/11/28 04:15:53;;;;;;;25.80;18.60;;;5.60;85.30;;;;;;5062058;28;20037;-72
2021/11/28 04:18:19;;;;;;;27.23;18.52;;;5.60;85.30;;;;;;5072556;28;20052;-76
2021/11/28 04:20:46;;;;;;;30.20;17.88;;;5.60;85.30;;;;;;5069402;28;20027;-72
2021/11/28 04:23:12;;;;;;;28.23;18.40;;;5.60;85.40;;;;;;5053705;28;20540;-72
2021/11/28 04:25:38;;;;;;;24.85;17.83;;;5.60;85.30;;;;;;5084520;28;20028;-72
2021/11/28 04:28:05;;;;;;;25.98;17.90;;;5.60;85.30;;;;;;5085918;28;20062;-76
2021/11/28 04:30:31;;;;;;;27.85;17.60;;;5.60;85.30;;;;;;5084087;28;20028;-76
2021/11/28 04:32:57;;;;;;;26.90;17.98;;;5.60;85.30;;;;;;5066415;28;20115;-76
2021/11/28 04:35:22;;;;;;;25.20;16.73;;;5.60;85.30;;;;;;5062242;28;20370;-76
2021/11/28 04:37:49;;;;;;;25.58;16.73;;;5.60;85.30;;;;;;5068510;28;20025;-75
2021/11/28 04:40:15;;;;;;;28.02;18.75;;;5.60;85.30;;;;;;5084655;28;20028;-75
2021/11/28 04:42:41;;;;;;;29.15;18.90;;;5.60;85.30;;;;;;5084317;28;20081;-76
2021/11/28 04:45:09;;;;;;;28.17;18.50;;;5.60;85.30;;;;;;5051985;28;20032;-76
2021/11/28 04:47:35;;;;;;;23.65;16.77;;;5.60;85.30;;;;;;5079745;28;20044;-76
2021/11/28 04:50:02;;;;;;;25.40;17.83;;;5.60;85.40;;;;;;5069072;28;20020;-76
2021/11/28 04:52:27;;;;;;;27.33;18.17;;;5.60;85.30;;;;;;5089550;28;20028;-76
2021/11/28 04:54:53;;;;;;;28.85;18.88;;;5.60;85.30;;;;;;5071964;28;20086;-76
2021/11/28 04:57:21;;;;;;;24.73;17.92;;;5.50;85.20;;;;;;5089900;28;20655;-72
2021/11/28 04:59:47;;;;;;;26.98;18.42;;;5.60;85.20;;;;;;5071462;28;20032;-72
2021/11/28 05:02:14;;;;;;;26.83;18.50;;;5.50;85.30;;;;;;5070531;28;20020;-72
2021/11/28 05:04:39;;;;;;;25.08;17.80;;;5.60;85.30;;;;;;5070895;28;21090;-72
2021/11/28 05:07:05;;;;;;;25.27;17.35;;;5.60;85.40;;;;;;5067380;28;20198;-75
2021/11/28 05:09:31;;;;;;;26.50;17.65;;;5.60;85.30;;;;;;5080443;28;20115;-76
2021/11/28 05:11:57;;;;;;;23.80;16.80;;;5.60;85.20;;;;;;5088734;28;20056;-75
2021/11/28 05:14:23;;;;;;;25.90;17.00;;;5.50;85.20;;;;;;5071508;28;20040;-75
2021/11/28 05:16:48;;;;;;;23.90;15.93;;;5.60;85.20;;;;;;5071888;28;20399;-75
2021/11/28 05:19:14;;;;;;;25.52;17.55;;;5.50;85.10;;;;;;5066311;28;20475;-75
2021/11/28 05:21:41;;;;;;;27.25;17.48;;;5.50;85.00;;;;;;5070792;28;20078;-76
2021/11/28 05:24:09;;;;;;;25.35;17.38;;;5.50;85.00;;;;;;5082874;28;20486;-75
2021/11/28 05:26:35;;;;;;;28.00;17.45;;;5.50;85.00;;;;;;5077341;28;20471;-75
2021/11/28 05:29:01;;;;;;;25.27;17.02;;;5.50;84.90;;;;;;5070383;28;20020;-76
2021/11/28 05:31:27;;;;;;;20.02;15.00;;;5.40;84.70;;;;;;5088166;28;20093;-71
2021/11/28 05:33:54;;;;;;;24.83;16.10;;;5.40;84.50;;;;;;5089113;28;20028;-75
2021/11/28 05:36:20;;;;;;;24.95;16.63;;;5.30;84.20;;;;;;5071329;28;20056;-76
2021/11/28 05:38:46;;;;;;;22.52;15.85;;;5.30;84.10;;;;;;5071556;28;20052;-76
2021/11/28 05:41:12;;;;;;;27.38;16.40;;;5.20;83.80;;;;;;5070155;28;20031;-74
2021/11/28 05:43:41;;;;;;;22.88;15.93;;;5.20;83.80;;;;;;5089135;28;20490;-76
2021/11/28 05:46:07;;;;;;;22.42;16.02;;;5.20;83.60;;;;;;5088407;28;20027;-74
2021/11/28 05:48:33;;;;;;;20.42;14.13;;;5.10;83.40;;;;;;5053016;28;20020;-75
2021/11/28 05:50:59;;;;;;;21.80;15.50;;;5.10;83.10;;;;;;5069401;28;20149;-75
2021/11/28 05:53:25;;;;;;;21.08;14.95;;;5.00;82.90;;;;;;5088188;28;20035;-71
2021/11/28 05:55:52;;;;;;;22.60;15.07;;;4.90;83.00;;;;;;5069654;28;20036;-71
2021/11/28 05:58:18;;;;;;;21.23;14.13;;;4.90;82.80;;;;;;5071254;28;20032;-75
2021/11/28 06:00:44;;;;;;;22.67;14.85;;;4.80;82.60;;;;;;5063022;28;20020;-75
2021/11/28 06:03:10;;;;;;;21.52;14.43;;;4.80;82.50;;;;;;5080958;28;20036;-75
2021/11/28 06:05:37;;;;;;;20.80;14.00;;;4.70;82.30;;;;;;5092531;28;20397;-72
2021/11/28 06:08:03;;;;;;;20.13;14.05;;;4.70;82.30;;;;;;5074633;28;20030;-72
2021/11/28 06:10:29;;;;;;;19.67;14.18;;;4.70;82.20;;;;;;5072475;28;20127;-72
2021/11/28 06:12:54;;;;;;;20.23;13.82;;;4.60;82.10;;;;;;5092069;28;20485;-72
2021/11/28 06:15:20;;;;;;;21.17;14.48;;;4.60;82.20;;;;;;5074079;28;20471;-72
2021/11/28 06:17:46;;;;;;;24.52;15.30;;;4.60;82.10;;;;;;5087939;28;20056;-72
2021/11/28 06:20:11;;;;;;;21.23;14.98;;;4.60;82.00;;;;;;5091484;28;20050;-72
2021/11/28 06:22:37;;;;;;;21.73;14.55;;;4.50;82.00;;;;;;5091813;28;20078;-72
2021/11/28 06:25:05;;;;;;;20.90;14.50;;;4.50;82.10;;;;;;5090718;28;20024;-71
2021/11/28 06:27:31;;;;;;;19.70;13.90;;;4.50;82.10;;;;;;5073543;28;20081;-75
2021/11/28 06:29:57;;;;;;;20.63;14.45;;;4.50;82.00;;;;;;5074365;28;20028;-75
2021/11/28 06:32:22;;;;;;;20.25;13.82;;;4.50;82.00;;;;;;5073562;28;20478;-74
2021/11/28 06:34:48;;;;;;;20.58;13.85;;;4.50;81.90;;;;;;5087322;28;20097;-75
2021/11/28 06:37:14;;;;;;;23.80;14.52;;;4.40;81.90;;;;;;5093111;28;20387;-75
2021/11/28 06:39:40;;;;;;;19.92;14.38;;;4.40;81.90;;;;;;5092234;28;20032;-75
2021/11/28 06:42:06;;;;;;;20.17;13.65;;;4.40;81.90;;;;;;5091915;28;20474;-71
2021/11/28 06:44:31;;;;;;;24.48;15.90;;;4.40;82.00;;;;;;5092037;28;20454;-75
2021/11/28 06:46:57;;;;;;;20.98;14.35;;;4.40;82.10;;;;;;5073868;28;20059;-71
2021/11/28 06:49:26;;;;;;;22.80;14.48;;;4.40;82.20;;;;;;5091185;28;20463;-71
2021/11/28 06:51:56;;;;;;;23.52;14.55;;;4.40;82.20;;;;;;5070151;28;20036;-71
2021/11/28 06:54:23;;;;;;;32.53;16.90;;;4.50;82.30;;;;;;5091917;28;20020;-71
2021/11/28 06:56:49;;;;;;;29.50;16.30;;;4.50;82.30;;;;;;5090611;28;20062;-75
2021/11/28 06:59:15;;;;;;;37.45;18.08;;;4.50;82.50;;;;;;5091041;28;20052;-75
2021/11/28 07:01:41;;;;;;;54.17;19.27;;;4.50;82.50;;;;;;5091325;28;20077;-71
2021/11/28 07:04:06;;;;;;;52.88;19.73;;;4.50;82.70;;;;;;5081648;28;20039;-71
2021/11/28 07:06:32;;;;;;;60.33;18.88;;;4.50;82.90;;;;;;5091446;28;20036;-71
2021/11/28 07:08:58;;;;;;;90.70;18.80;;;4.60;83.10;;;;;;5090232;28;20028;-71
2021/11/28 07:11:23;;;;;;;58.60;19.50;;;4.60;83.90;;;;;;5090164;28;20446;-71
2021/11/28 07:13:51;;;;;;;35.92;17.42;;;4.60;83.60;;;;;;5071317;28;20083;-71
2021/11/28 07:16:17;;;;;;;55.95;16.27;;;4.60;84.20;;;;;;5071706;28;20430;-71
2021/11/28 07:18:44;;;;;;;54.53;16.30;;;4.60;83.70;;;;;;5090444;28;20059;-71
2021/11/28 07:21:11;;;;;;;25.17;14.70;;;4.50;83.70;;;;;;5091108;28;20100;-71
2021/11/28 07:23:37;;;;;;;33.45;16.13;;;4.50;83.80;;;;;;5091118;28;20378;-71
2021/11/28 07:26:04;;;;;;;35.70;15.55;;;4.40;83.80;;;;;;5074042;28;20482;-74
2021/11/28 07:28:30;;;;;;;35.08;15.18;;;4.40;83.90;;;;;;5071687;28;20159;-75
2021/11/28 07:30:57;;;;;;;49.30;15.45;;;4.30;84.00;;;;;;5070958;28;20115;-74
2021/11/28 07:33:22;;;;;;;41.22;15.70;;;4.30;84.00;;;;;;5081783;28;20082;-75
2021/11/28 07:35:48;;;;;;;38.58;16.48;;;4.30;84.10;;;;;;5056848;28;20074;-74
2021/11/28 07:38:14;;;;;;;39.05;16.58;;;4.30;84.10;;;;;;5091322;28;20486;-71
2021/11/28 07:40:39;;;;;;;37.45;15.45;;;4.20;84.20;;;;;;5071513;28;20598;-71
2021/11/28 07:43:05;;;;;;;35.38;16.42;;;4.20;84.20;;;;;;5086351;28;20141;-71
2021/11/28 07:45:31;;;;;;;25.52;16.10;;;4.30;84.40;;;;;;5072409;28;20040;-75
2021/11/28 07:47:58;;;;;;;25.70;16.70;;;4.30;84.40;;;;;;5072624;28;20040;-75
2021/11/28 07:50:25;;;;;;;32.50;16.38;;;4.30;84.30;;;;;;5072423;28;20034;-75
2021/11/28 07:52:51;;;;;;;27.13;15.38;;;4.30;84.30;;;;;;5091080;28;20043;-75
2021/11/28 07:55:16;;;;;;;25.45;14.07;;;4.30;84.30;;;;;;5090951;28;20012;-74
2021/11/28 07:57:44;;;;;;;27.98;16.00;;;4.30;84.30;;;;;;5090389;28;20032;-71
2021/11/28 08:00:10;;;;;;;26.23;15.10;;;4.30;84.30;;;;;;5089615;28;20113;-71
2021/11/28 08:02:35;;;;;;;26.88;15.77;;;4.30;84.30;;;;;;5090455;28;20032;-74
2021/11/28 08:05:02;;;;;;;25.42;15.25;;;4.30;84.30;;;;;;5091054;28;20337;-75
2021/11/28 08:07:28;;;;;;;24.85;14.68;;;4.30;84.30;;;;;;5090264;28;20483;-71
2021/11/28 08:09:54;;;;;;;24.17;14.65;;;4.30;84.40;;;;;;5055249;28;20097;-72
2021/11/28 08:12:21;;;;;;;22.95;14.38;;;4.30;84.40;;;;;;5055436;28;20058;-74
2021/11/28 08:14:47;;;;;;;27.52;15.15;;;4.30;84.20;;;;;;5072563;28;20058;-75
2021/11/28 08:17:13;;;;;;;23.10;15.43;;;4.30;84.10;;;;;;5072591;28;20451;-75
2021/11/28 08:19:40;;;;;;;29.58;14.52;;;4.30;84.10;;;;;;5071859;28;20020;-75
2021/11/28 08:22:06;;;;;;;24.67;14.65;;;4.30;84.10;;;;;;5089223;28;20035;-75
2021/11/28 08:24:32;;;;;;;24.38;14.63;;;4.30;84.00;;;;;;5072198;28;20044;-75
2021/11/28 08:26:57;;;;;;;20.92;13.90;;;4.40;83.90;;;;;;5089527;28;20063;-75
2021/11/28 08:29:23;;;;;;;25.23;14.25;;;4.30;83.80;;;;;;5087159;28;20055;-71
2021/11/28 08:31:49;;;;;;;21.27;13.90;;;4.40;83.90;;;;;;5072335;28;22028;-71
2021/11/28 08:34:15;;;;;;;21.35;14.00;;;4.40;83.70;;;;;;5087539;28;20094;-64
2021/11/28 08:36:41;;;;;;;25.52;14.40;;;4.40;83.70;;;;;;5070932;28;20092;-65
2021/11/28 08:39:07;;;;;;;28.83;15.18;;;4.40;83.60;;;;;;5087427;28;20491;-68
2021/11/28 08:41:33;;;;;;;31.73;14.55;;;4.40;83.40;;;;;;5088322;28;20031;-69
2021/11/28 08:43:59;;;;;;;30.75;13.82;;;4.30;83.60;;;;;;5089496;28;20191;-73
2021/11/28 08:46:25;;;;;;;27.40;15.15;;;4.30;83.70;;;;;;5086536;28;20455;-73
2021/11/28 08:48:53;;;;;;;42.33;14.30;;;4.30;83.80;;;;;;5093537;28;20038;-74
2021/11/28 08:51:20;;;;;;;45.47;14.63;;;4.30;83.80;;;;;;5098375;28;20059;-75
2021/11/28 08:53:47;;;;;;;27.27;15.02;;;4.30;83.80;;;;;;5080814;28;20483;-74
2021/11/28 08:56:13;;;;;;;24.10;13.27;;;4.30;83.80;;;;;;5094385;28;20024;-73
2021/11/28 08:58:39;;;;;;;28.55;14.30;;;4.30;83.80;;;;;;5077024;28;20490;-74
2021/11/28 09:01:05;;;;;;;24.60;14.40;;;4.20;83.90;;;;;;5079145;28;20028;-73
2021/11/28 09:03:30;;;;;;;22.48;14.23;;;4.20;84.20;;;;;;5084800;28;20191;-72
2021/11/28 09:05:56;;;;;;;31.75;13.93;;;4.10;84.40;;;;;;5069765;28;20032;-71
2021/11/28 09:08:23;;;;;;;25.33;13.57;;;4.20;84.70;;;;;;5086655;28;20372;-72
2021/11/28 09:10:49;;;;;;;24.50;14.45;;;4.20;84.80;;;;;;5063995;28;20032;-71
2021/11/28 09:13:15;;;;;;;26.38;15.02;;;4.30;84.80;;;;;;5079294;28;20127;-72
2021/11/28 09:15:41;;;;;;;28.50;15.63;;;4.30;84.80;;;;;;5088357;28;20062;-72
2021/11/28 09:20:34;;;;;;;24.55;14.85;;;4.50;84.90;;;;;;5089078;28;20108;-74
2021/11/28 09:25:30;;;;;;;24.55;14.55;;;4.70;84.80;;;;;;5081192;28;20117;-73
2021/11/28 09:27:57;;;;;;;24.58;16.20;;;4.80;84.80;;;;;;5071069;28;20044;-72
2021/11/28 09:30:24;;;;;;;23.85;14.38;;;4.90;84.60;;;;;;5088503;28;20450;-71
2021/11/28 09:32:52;;;;;;;22.38;14.05;;;5.00;84.50;;;;;;5084422;28;20118;-71
2021/11/28 09:35:18;;;;;;;22.20;14.23;;;5.00;84.40;;;;;;5088521;28;20184;-72
2021/11/28 09:37:45;;;;;;;22.50;14.05;;;5.00;84.20;;;;;;5077043;28;20032;-71
2021/11/28 09:40:11;;;;;;;21.30;13.95;;;5.00;84.20;;;;;;5091544;28;20517;-70
2021/11/28 09:42:39;;;;;;;24.13;14.95;;;5.10;84.40;;;;;;5078027;28;20105;-72
2021/11/28 09:45:07;;;;;;;23.58;15.02;;;5.20;84.30;;;;;;5088644;28;20471;-73
2021/11/28 09:47:35;;;;;;;24.90;15.65;;;5.30;84.30;;;;;;5091957;28;20032;-73
2021/11/28 09:50:05;;;;;;;24.75;15.63;;;5.40;84.20;;;;;;5058426;28;20042;-73
2021/11/28 09:52:32;;;;;;;21.95;14.10;;;5.50;84.20;;;;;;5093084;28;20431;-72
2021/11/28 09:55:00;;;;;;;25.67;14.98;;;5.60;84.30;;;;;;5092156;28;20443;-72
2021/11/28 09:57:27;;;;;;;24.23;16.00;;;5.70;84.30;;;;;;5088084;28;20024;-71
2021/11/28 09:59:55;;;;;;;24.23;15.43;;;5.80;84.40;;;;;;5084363;28;20550;-72
2021/11/28 10:02:23;;;;;;;22.80;15.02;;;5.90;84.30;;;;;;5080395;28;20430;-72
2021/11/28 10:04:50;;;;;;;19.90;13.80;;;6.10;84.50;;;;;;5092214;28;20024;-72
2021/11/28 10:07:16;;;;;;;20.55;12.55;;;6.20;84.40;;;;;;5100853;28;20027;-74
2021/11/28 10:09:42;;;;;;;17.85;12.93;;;6.30;84.10;;;;;;5092591;28;20440;-74
2021/11/28 10:12:11;;;;;;;21.08;14.15;;;6.30;83.80;;;;;;5074818;28;20097;-75
2021/11/28 10:14:37;;;;;;;19.15;13.50;;;6.30;83.90;;;;;;5072478;28;20467;-73
2021/11/28 10:17:03;;;;;;;18.58;12.13;;;6.30;83.80;;;;;;5073898;28;20031;-72
2021/11/28 10:19:32;;;;;;;20.25;13.75;;;6.30;83.90;;;;;;5092476;28;20440;-71
2021/11/28 10:21:58;;;;;;;18.55;12.77;;;6.20;83.80;;;;;;5105034;28;20032;-72
2021/11/28 10:24:24;;;;;;;19.77;13.13;;;6.20;84.00;;;;;;5093189;28;20060;-72
2021/11/28 10:26:55;;;;;;;20.60;13.70;;;6.10;84.20;;;;;;5074104;28;20494;-74
2021/11/28 10:29:30;;;;;;;23.48;15.27;;;6.10;84.40;;;;;;5091628;28;20045;-74
2021/11/28 10:31:58;;;;;;;20.45;12.90;;;6.10;84.40;;;;;;5087533;28;20036;-74
2021/11/28 10:34:26;;;;;;;21.17;13.90;;;6.10;84.40;;;;;;5071374;28;20647;-74
2021/11/28 10:37:21;;;;;;;22.50;14.10;;;6.00;84.40;;;;;;5092562;28;20034;-74
2021/11/28 10:39:52;;;;;;;19.45;13.75;;;6.00;84.50;;;;;;5091494;28;20051;-74
2021/11/28 10:42:21;;;;;;;20.77;13.77;;;6.00;84.70;;;;;;5092116;28;20414;-74
2021/11/28 10:45:11;;;;;;;20.95;14.27;;;6.00;84.80;;;;;;5091746;28;20024;-74
2021/11/28 10:47:39;;;;;;;21.48;14.35;;;6.00;84.90;;;;;;5091907;28;20425;-74
2021/11/28 10:50:15;;;;;;;25.42;15.63;;;6.00;84.90;;;;;;5086384;28;20510;-74
2021/11/28 10:52:44;;;;;;;20.98;14.05;;;5.90;85.00;;;;;;5091567;28;20066;-74
2021/11/28 10:55:22;;;;;;;26.15;17.15;;;5.90;85.10;;;;;;5090383;28;20028;-74
2021/11/28 10:58:09;;;;;;;24.35;15.48;;;5.90;85.30;;;;;;5081385;28;20038;-74
2021/11/28 11:00:41;;;;;;;23.98;16.40;;;6.00;85.40;;;;;;5073367;28;20039;-75
2021/11/28 11:03:15;;;;;;;25.58;16.02;;;6.00;85.20;;;;;;5092352;28;20417;-74
2021/11/28 11:05:43;;;;;;;24.23;15.25;;;6.00;85.30;;;;;;5090212;28;20035;-74
2021/11/28 11:08:09;;;;;;;27.25;17.30;;;6.00;85.50;;;;;;5089140;28;20020;-74
2021/11/28 11:10:35;;;;;;;26.25;16.92;;;6.00;85.60;;;;;;5093222;28;20379;-74
2021/11/28 11:13:03;;;;;;;28.52;18.08;;;6.10;85.70;;;;;;5070138;28;20096;-74
2021/11/28 11:15:45;;;;;;;26.27;17.35;;;6.10;85.70;;;;;;5052028;28;20029;-74
2021/11/28 11:18:15;;;;;;;28.50;16.97;;;6.20;85.60;;;;;;5094174;28;20331;-74
2021/11/28 11:20:49;;;;;;;24.52;16.30;;;6.20;85.70;;;;;;5078704;28;20099;-74
2021/11/28 11:23:42;;;;;;;24.65;15.80;;;6.20;85.90;;;;;;5093690;28;20024;-74
2021/11/28 11:26:16;;;;;;;22.67;14.23;;;6.20;85.90;;;;;;5099208;28;20547;-75
2021/11/28 11:29:07;;;;;;;22.65;14.70;;;6.20;85.60;;;;;;5089220;28;20028;-75
2021/11/28 11:31:35;;;;;;;21.00;14.20;;;6.20;85.40;;;;;;5064430;28;20648;-74
2021/11/28 11:34:01;;;;;;;22.45;14.35;;;6.20;85.30;;;;;;5088637;28;20032;-75
2021/11/28 11:37:02;;;;;;;20.13;12.95;;;6.20;85.40;;;;;;5090223;28;21059;-74
2021/11/28 11:39:31;;;;;;;23.27;13.25;;;6.10;85.50;;;;;;5087743;28;20428;-74
2021/11/28 11:41:59;;;;;;;21.77;14.63;;;6.10;86.10;;;;;;5088762;28;20020;-74
2021/11/28 11:44:27;;;;;;;20.48;12.95;;;6.10;85.70;;;;;;5090348;28;20031;-75
2021/11/28 11:46:55;;;;;;;20.98;13.65;;;6.20;85.70;;;;;;5088106;28;20910;-74
2021/11/28 11:49:22;;;;;;;18.50;12.15;;;6.30;85.70;;;;;;5103021;28;20028;-74
2021/11/28 11:51:48;;;;;;;19.55;14.07;;;6.40;85.60;;;;;;5089276;28;20542;-75
2021/11/28 11:54:24;;;;;;;20.48;13.32;;;6.40;85.40;;;;;;5090712;28;20032;-75
2021/11/28 11:57:02;;;;;;;19.05;12.93;;;6.40;85.30;;;;;;5085480;28;20077;-75
2021/11/28 11:59:53;;;;;;;16.85;12.43;;;6.40;85.20;;;;;;5087669;28;20466;-74
2021/11/28 12:02:46;;;;;;;19.48;13.50;;;6.60;85.40;;;;;;5088747;28;20024;-75
2021/11/28 12:05:23;;;;;;;;;;;6.90;84.80;;;;;;5071379;28;20071;-75
2021/11/28 12:07:54;;;;;;;16.70;10.80;;;7.00;84.20;;;;;;5097352;28;19933;-75
2021/11/28 12:10:27;;;;;;;16.75;11.65;;;7.00;83.80;;;;;;5067604;28;20043;-75
2021/11/28 12:12:53;;;;;;;15.55;11.02;;;7.00;83.80;;;;;;5088718;28;20080;-75
2021/11/28 12:15:23;;;;;;;15.63;11.15;;;6.90;83.70;;;;;;5083653;28;20524;-74
2021/11/28 12:17:51;;;;;;;15.73;11.07;;;6.80;83.80;;;;;;5088620;28;20030;-75
2021/11/28 12:20:37;;;;;;;16.88;11.10;;;6.80;84.00;;;;;;5083745;28;20145;-75
2021/11/28 12:23:03;;;;;;;13.75;9.77;;;6.80;84.20;;;;;;5085954;28;20032;-75
2021/11/28 12:25:43;;;;;;;15.10;10.23;;;6.80;84.20;;;;;;5086954;28;20020;-75
2021/11/28 12:28:25;;;;;;;14.35;9.55;;;6.80;84.20;;;;;;5102019;28;20716;-74
2021/11/28 12:31:12;;;;;;;14.93;10.68;;;6.70;83.80;;;;;;5087707;28;20016;-74
2021/11/28 12:33:53;;;;;;;15.25;9.30;;;6.70;84.20;;;;;;5090025;28;20028;-75
2021/11/28 12:36:34;;;;;;;12.55;8.55;;;6.70;84.30;;;;;;5091949;28;20027;-75
2021/11/28 12:39:11;;;;;;;11.85;8.38;;;6.80;84.60;;;;;;5092345;28;20497;-75
2021/11/28 12:41:46;;;;;;;15.63;9.10;;;7.00;84.20;;;;;;5075271;28;20031;-74
2021/11/28 12:44:16;;;;;;;11.48;8.27;;;7.10;83.80;;;;;;5071927;28;20070;-75
2021/11/28 12:46:52;;;;;;;11.27;8.27;;;7.20;83.80;;;;;;5089041;28;20057;-76
2021/11/28 12:49:33;;;;;;;9.75;7.13;;;7.20;83.40;;;;;;5087667;28;20043;-76
2021/11/28 12:52:24;;;;;;;13.90;10.05;;;7.10;83.60;;;;;;5082778;28;20031;-74
2021/11/28 12:55:13;;;;;;;10.65;7.53;;;7.30;83.70;;;;;;5073032;28;20147;-75